createdAt,value
2018-03-17T00:02:14.868Z,12.93
2018-03-17T00:04:45.357Z,10.88
2018-03-17T00:07:15.459Z,10.77
2018-03-17T00:09:46.418Z,10.93
2018-03-17T00:12:18.100Z,10.06
2018-03-17T00:14:48.853Z,9.38
2018-03-17T00:17:19.777Z,8.60
2018-03-17T00:19:51.161Z,9.24
2018-03-17T00:22:21.817Z,8.27
2018-03-17T00:24:52.454Z,8.98
2018-03-17T00:27:24.092Z,8.06
2018-03-17T00:29:54.852Z,8.25
2018-03-17T00:32:25.827Z,7.97
2018-03-17T00:34:57.211Z,8.56
2018-03-17T00:37:27.868Z,8.43
2018-03-17T00:39:59.330Z,7.54
2018-03-17T00:42:29.968Z,7.72
2018-03-17T00:45:01.460Z,7.30
2018-03-17T00:47:32.088Z,7.43
2018-03-17T00:50:02.900Z,6.95
2018-03-17T00:52:33.392Z,6.84
2018-03-17T00:55:04.173Z,6.15
2018-03-17T00:57:34.861Z,5.60
2018-03-17T01:00:05.262Z,5.68
2018-03-17T01:02:36.955Z,5.46
2018-03-17T01:05:07.796Z,5.12
2018-03-17T01:07:39.376Z,6.14
2018-03-17T01:10:10.055Z,6.15
2018-03-17T01:12:40.816Z,4.78
2018-03-17T01:15:11.805Z,5.90
2018-03-17T01:17:42.673Z,5.03
2018-03-17T01:20:14.245Z,6.12
2018-03-17T01:22:44.883Z,5.05
2018-03-17T01:25:16.037Z,5.87
2018-03-17T01:27:46.788Z,5.00
2018-03-17T01:30:17.859Z,6.00
2018-03-17T01:32:48.708Z,5.40
2018-03-17T01:35:19.236Z,5.80
2018-03-17T01:37:50.985Z,5.24
2018-03-17T01:40:21.739Z,6.22
2018-03-17T01:42:53.870Z,5.96
2018-03-17T01:45:24.391Z,6.28
2018-03-17T01:47:55.007Z,6.05
2018-03-17T01:50:25.799Z,5.97
2018-03-17T01:52:57.166Z,5.48
2018-03-17T01:55:28.048Z,5.70
2018-03-17T01:57:58.757Z,6.15
2018-03-17T02:00:29.814Z,5.87
2018-03-17T02:03:01.363Z,5.86
2018-03-17T02:05:32.123Z,6.28
2018-03-17T02:08:03.420Z,5.92
2018-03-17T02:10:36.404Z,6.53
2018-03-17T02:13:05.617Z,6.33
2018-03-17T02:15:37.372Z,6.68
2018-03-17T02:18:07.237Z,6.28
2018-03-17T02:20:37.995Z,6.70
2018-03-17T02:23:09.681Z,7.58
2018-03-17T02:25:40.831Z,6.77
2018-03-17T02:28:11.388Z,6.80
2018-03-17T02:30:42.092Z,6.62
2018-03-17T02:33:12.485Z,7.98
2018-03-17T02:35:43.187Z,6.62
2018-03-17T02:38:13.917Z,5.43
2018-03-17T02:40:44.960Z,6.07
2018-03-17T02:43:15.806Z,5.28
2018-03-17T02:45:46.810Z,5.20
2018-03-17T02:48:17.309Z,6.20
2018-03-17T02:50:48.029Z,4.93
2018-03-17T02:53:18.796Z,5.72
2018-03-17T02:55:50.237Z,4.98
2018-03-17T02:58:20.780Z,5.20
2018-03-17T03:00:52.218Z,4.74
2018-03-17T03:03:22.831Z,5.28
2018-03-17T03:05:54.424Z,4.40
2018-03-17T03:08:25.263Z,4.74
2018-03-17T03:10:55.184Z,4.65
2018-03-17T03:13:26.703Z,4.50
2018-03-17T03:15:57.448Z,4.37
2018-03-17T03:18:28.059Z,4.50
2018-03-17T03:20:59.048Z,4.35
2018-03-17T03:23:29.352Z,4.26
2018-03-17T03:26:00.008Z,4.78
2018-03-17T03:28:31.519Z,4.60
2018-03-17T03:31:02.328Z,4.28
2018-03-17T03:33:33.065Z,4.47
2018-03-17T03:36:03.544Z,5.20
2018-03-17T03:38:34.156Z,5.15
2018-03-17T03:41:04.586Z,4.48
2018-03-17T03:43:35.495Z,5.35
2018-03-17T03:46:06.359Z,5.30
2018-03-17T03:48:36.664Z,4.46
2018-03-17T03:51:07.469Z,5.12
2018-03-17T03:53:37.238Z,4.40
2018-03-17T03:56:08.243Z,5.15
2018-03-17T03:58:38.791Z,5.47
2018-03-17T04:01:10.447Z,5.14
2018-03-17T04:03:41.053Z,4.72
2018-03-17T04:06:11.892Z,5.50
2018-03-17T04:08:42.838Z,5.68
2018-03-17T04:11:14.183Z,5.68
2018-03-17T04:13:45.829Z,5.16
2018-03-17T04:16:19.506Z,5.87
2018-03-17T04:18:48.675Z,5.45
2018-03-17T04:21:18.414Z,6.12
2018-03-17T04:23:49.055Z,6.07
2018-03-17T04:26:19.476Z,6.06
2018-03-17T04:28:50.136Z,5.95
2018-03-17T04:31:20.779Z,5.40
2018-03-17T04:33:51.384Z,6.03
2018-03-17T04:36:22.044Z,5.22
2018-03-17T04:38:52.786Z,5.20
2018-03-17T04:41:24.204Z,5.42
2018-03-17T04:43:54.855Z,6.93
2018-03-17T04:46:25.818Z,8.05
2018-03-17T04:48:56.788Z,8.05
2018-03-17T04:51:27.763Z,7.18
2018-03-17T04:53:59.086Z,8.14
2018-03-17T04:56:29.899Z,7.68
2018-03-17T04:59:00.348Z,9.35
2018-03-17T05:01:31.087Z,10.63
2018-03-17T05:04:02.332Z,8.28
2018-03-17T05:06:33.020Z,7.75
2018-03-17T05:09:03.459Z,7.05
2018-03-17T05:11:34.188Z,8.10
2018-03-17T05:14:05.167Z,5.93
2018-03-17T05:16:36.244Z,6.25
2018-03-17T05:19:07.107Z,6.90
2018-03-17T05:21:37.519Z,6.53
2018-03-17T05:24:08.179Z,7.72
2018-03-17T05:26:38.615Z,7.40
2018-03-17T05:29:10.236Z,6.46
2018-03-17T05:31:41.087Z,6.60
2018-03-17T05:34:11.388Z,6.68
2018-03-17T05:36:42.178Z,9.00
2018-03-17T05:39:12.355Z,6.42
2018-03-17T05:41:43.269Z,6.97
2018-03-17T05:44:14.220Z,6.72
2018-03-17T05:46:45.793Z,7.26
2018-03-17T05:49:18.601Z,7.00
2018-03-17T05:51:47.845Z,5.96
2018-03-17T05:54:17.391Z,6.82
2018-03-17T05:56:48.152Z,6.93
2018-03-17T05:59:18.771Z,5.78
2018-03-17T06:01:49.767Z,5.22
2018-03-17T06:04:21.197Z,5.94
2018-03-17T06:06:51.898Z,5.97
2018-03-17T06:09:23.296Z,6.34
2018-03-17T06:11:54.007Z,5.10
2018-03-17T06:14:24.898Z,5.50
2018-03-17T06:16:55.987Z,6.00
2018-03-17T06:19:26.815Z,5.72
2018-03-17T06:21:58.431Z,5.46
2018-03-17T06:24:29.060Z,5.55
2018-03-17T06:26:59.808Z,5.00
2018-03-17T06:29:31.232Z,5.42
2018-03-17T06:32:02.767Z,4.90
2018-03-17T06:34:33.314Z,5.97
2018-03-17T06:37:04.043Z,6.15
2018-03-17T06:39:34.852Z,5.37
2018-03-17T06:42:06.283Z,7.56
2018-03-17T06:44:36.543Z,5.04
2018-03-17T06:47:07.175Z,5.44
2018-03-17T06:49:37.816Z,5.90
2018-03-17T06:52:08.620Z,5.80
2018-03-17T06:54:40.089Z,5.52
2018-03-17T06:57:11.559Z,9.15
2018-03-17T06:59:42.204Z,7.52
2018-03-17T07:02:12.623Z,6.00
2018-03-17T07:04:44.568Z,4.82
2018-03-17T07:07:14.499Z,5.43
2018-03-17T07:09:45.764Z,5.57
2018-03-17T07:12:17.317Z,4.86
2018-03-17T07:14:47.794Z,5.10
2018-03-17T07:17:19.138Z,5.60
2018-03-17T07:19:52.467Z,4.15
2018-03-17T07:22:22.934Z,5.35
2018-03-17T07:24:54.071Z,4.18
2018-03-17T07:27:23.626Z,5.53
2018-03-17T07:29:53.528Z,4.65
2018-03-17T07:32:24.292Z,4.20
2018-03-17T07:34:56.278Z,6.16
2018-03-17T07:37:27.523Z,5.74
2018-03-17T07:39:57.834Z,5.12
2018-03-17T07:42:29.624Z,5.26
2018-03-17T07:44:59.620Z,5.53
2018-03-17T07:47:30.154Z,4.33
2018-03-17T07:50:00.991Z,4.90
2018-03-17T07:52:31.922Z,5.28
2018-03-17T07:55:02.839Z,5.55
2018-03-17T07:57:33.840Z,5.20
2018-03-17T08:00:04.240Z,4.50
2018-03-17T08:02:35.960Z,6.42
2018-03-17T08:05:06.457Z,4.30
2018-03-17T08:07:37.194Z,6.10
2018-03-17T08:10:07.791Z,4.75
2018-03-17T08:12:39.211Z,6.56
2018-03-17T08:15:09.939Z,7.55
2018-03-17T08:17:41.303Z,5.05
2018-03-17T08:20:11.778Z,7.42
2018-03-17T08:22:42.489Z,7.12
2018-03-17T08:25:13.351Z,6.03
2018-03-17T08:27:44.099Z,7.05
2018-03-17T08:30:15.911Z,11.38
2018-03-17T08:32:46.525Z,8.16
2018-03-17T08:35:17.392Z,6.12
2018-03-17T08:37:48.752Z,6.68
2018-03-17T08:40:19.335Z,7.43
2018-03-17T08:42:50.076Z,4.95
2018-03-17T08:45:20.471Z,7.26
2018-03-17T08:47:51.128Z,6.04
2018-03-17T08:50:21.453Z,7.00
2018-03-17T08:52:52.249Z,7.40
2018-03-17T08:55:22.890Z,8.75
2018-03-17T08:57:53.957Z,7.53
2018-03-17T09:00:24.814Z,10.77
2018-03-17T09:02:55.878Z,8.77
2018-03-17T09:05:26.360Z,8.60
2018-03-17T09:07:57.104Z,6.50
2018-03-17T09:10:27.814Z,7.35
2018-03-17T09:12:58.449Z,7.72
2018-03-17T09:15:29.106Z,10.00
2018-03-17T09:17:59.536Z,8.36
2018-03-17T09:20:30.207Z,8.57
2018-03-17T09:23:00.939Z,7.90
2018-03-17T09:25:32.004Z,8.38
2018-03-17T09:28:02.836Z,8.30
2018-03-17T09:30:33.842Z,7.95
2018-03-17T09:33:04.904Z,9.55
2018-03-17T09:35:35.920Z,9.55
2018-03-17T09:38:06.939Z,7.05
2018-03-17T09:40:37.798Z,8.75
2018-03-17T09:43:08.852Z,8.23
2018-03-17T09:45:39.779Z,10.85
2018-03-17T09:48:10.355Z,8.73
2018-03-17T09:50:41.000Z,10.02
2018-03-17T09:53:11.870Z,8.15
2018-03-17T09:55:42.355Z,10.73
2018-03-17T09:58:13.070Z,9.52
2018-03-17T10:00:43.364Z,9.88
2018-03-17T10:03:14.082Z,8.32
2018-03-17T10:05:44.968Z,6.87
2018-03-17T10:08:15.885Z,6.12
2018-03-17T10:10:46.871Z,9.80
2018-03-17T10:13:17.920Z,7.18
2018-03-17T10:15:48.673Z,8.75
2018-03-17T10:18:19.296Z,9.86
2018-03-17T10:20:49.957Z,8.77
2018-03-17T10:23:20.640Z,11.68
2018-03-17T10:25:51.453Z,18.00
2018-03-17T10:28:22.244Z,18.08
2018-03-17T10:30:52.952Z,12.05
2018-03-17T10:33:23.996Z,11.02
2018-03-17T10:35:55.168Z,13.85
2018-03-17T10:38:26.053Z,13.52
2018-03-17T10:40:56.901Z,12.10
2018-03-17T10:43:27.872Z,11.32
2018-03-17T10:45:58.857Z,10.52
2018-03-17T10:48:29.801Z,9.98
2018-03-17T10:51:00.835Z,11.60
2018-03-17T10:53:31.531Z,10.68
2018-03-17T10:56:02.251Z,10.30
2018-03-17T10:58:32.864Z,8.82
2018-03-17T11:01:08.784Z,8.88
2018-03-17T11:03:38.152Z,11.88
2018-03-17T11:06:07.367Z,14.15
2018-03-17T11:08:38.588Z,12.02
2018-03-17T11:11:07.868Z,11.85
2018-03-17T11:13:38.472Z,11.02
2018-03-17T11:16:09.188Z,12.93
2018-03-17T11:18:39.937Z,7.10
2018-03-17T11:21:10.816Z,11.48
2018-03-17T11:23:41.887Z,11.32
2018-03-17T11:26:12.776Z,11.98
2018-03-17T11:28:44.190Z,12.58
2018-03-17T11:31:16.634Z,10.52
2018-03-17T11:33:46.556Z,8.95
2018-03-17T11:36:17.391Z,7.75
2018-03-17T11:38:48.092Z,8.55
2018-03-17T11:41:18.004Z,6.86
2018-03-17T11:43:48.449Z,9.32
2018-03-17T11:46:19.167Z,9.65
2018-03-17T11:48:49.895Z,9.85
2018-03-17T11:51:20.883Z,6.82
2018-03-17T11:53:51.890Z,7.85
2018-03-17T11:56:22.829Z,7.68
2018-03-17T11:58:54.539Z,7.24
2018-03-17T12:01:25.148Z,8.68
2018-03-17T12:03:55.916Z,8.70
2018-03-17T12:06:26.804Z,10.65
2018-03-17T12:08:58.214Z,14.54
2018-03-17T12:11:28.840Z,16.35
2018-03-17T12:13:59.906Z,17.73
2018-03-17T12:16:30.828Z,17.52
2018-03-17T12:19:02.257Z,17.08
2018-03-17T12:21:32.991Z,12.80
2018-03-17T12:24:03.919Z,10.65
2018-03-17T12:26:34.898Z,12.25
2018-03-17T12:29:05.904Z,12.85
2018-03-17T12:31:36.252Z,10.75
2018-03-17T12:34:06.499Z,13.17
2018-03-17T12:36:37.500Z,12.07
2018-03-17T12:39:08.456Z,18.05
2018-03-17T12:41:41.047Z,16.55
2018-03-17T12:44:12.695Z,13.56
2018-03-17T12:46:43.291Z,14.08
2018-03-17T12:49:13.661Z,11.26
2018-03-17T12:51:44.566Z,13.76
2018-03-17T12:54:15.548Z,14.77
2018-03-17T12:56:46.218Z,13.07
2018-03-17T12:59:18.555Z,19.48
2018-03-17T13:01:48.377Z,9.68
2018-03-17T13:04:19.116Z,10.88
2018-03-17T13:06:50.494Z,8.22
2018-03-17T13:09:21.983Z,12.63
2018-03-17T13:11:52.393Z,9.84
2018-03-17T13:14:23.796Z,10.47
2018-03-17T13:16:54.592Z,10.18
2018-03-17T13:19:32.447Z,10.02
2018-03-17T13:22:01.665Z,10.48
2018-03-17T13:24:31.200Z,8.27
2018-03-17T13:27:11.376Z,10.93
2018-03-17T13:29:40.556Z,9.13
2018-03-17T13:32:20.656Z,10.80
2018-03-17T13:34:49.577Z,9.57
2018-03-17T13:37:29.972Z,8.13
2018-03-17T13:39:59.035Z,6.53
2018-03-17T13:42:28.181Z,13.87
2018-03-17T13:44:57.492Z,16.57
2018-03-17T13:47:26.671Z,6.87
2018-03-17T13:49:55.584Z,9.63
2018-03-17T13:52:24.837Z,10.77
2018-03-17T13:54:54.276Z,9.88
2018-03-17T13:57:23.213Z,7.40
2018-03-17T13:59:52.490Z,6.43
2018-03-17T14:02:21.695Z,9.55
2018-03-17T14:04:51.012Z,9.45
2018-03-17T14:07:20.647Z,8.77
2018-03-17T14:09:49.896Z,6.93
2018-03-17T14:12:19.120Z,13.32
2018-03-17T14:14:48.413Z,10.65
2018-03-17T14:17:18.366Z,11.98
2018-03-17T14:19:49.110Z,14.20
2018-03-17T14:22:20.060Z,15.43
2018-03-17T14:24:50.997Z,11.55
2018-03-17T14:27:21.864Z,10.95
2018-03-17T14:29:53.456Z,9.90
2018-03-17T14:32:24.127Z,15.60
2018-03-17T14:34:54.892Z,14.87
2018-03-17T14:37:25.820Z,14.13
2018-03-17T14:39:56.950Z,14.82
2018-03-17T14:42:27.914Z,14.40
2018-03-17T14:44:58.857Z,15.40
2018-03-17T14:47:29.901Z,14.93
2018-03-17T14:50:00.929Z,14.00
2018-03-17T14:52:31.983Z,11.25
2018-03-17T14:55:03.009Z,13.48
2018-03-17T14:57:33.897Z,11.77
2018-03-17T15:00:04.434Z,10.95
2018-03-17T15:02:37.984Z,12.18
2018-03-17T15:05:07.248Z,9.85
2018-03-17T15:07:37.172Z,9.80
2018-03-17T15:10:08.014Z,7.25
2018-03-17T15:12:39.355Z,9.10
2018-03-17T15:15:10.060Z,8.88
2018-03-17T15:17:40.471Z,6.68
2018-03-17T15:20:11.141Z,8.62
2018-03-17T15:22:41.808Z,9.20
2018-03-17T15:25:13.416Z,9.18
2018-03-17T15:27:44.296Z,10.35
2018-03-17T15:30:15.100Z,9.88
2018-03-17T15:32:46.086Z,6.45
2018-03-17T15:35:16.929Z,7.40
2018-03-17T15:37:47.826Z,9.75
2018-03-17T15:40:19.291Z,9.48
2018-03-17T15:42:49.943Z,9.75
2018-03-17T15:45:21.332Z,9.50
2018-03-17T15:47:51.972Z,7.70
2018-03-17T15:50:22.857Z,10.00
2018-03-17T15:52:53.886Z,20.02
2018-03-17T15:55:24.962Z,27.60
2018-03-17T15:57:55.430Z,13.50
2018-03-17T16:00:26.166Z,8.90
2018-03-17T16:02:56.896Z,9.15
2018-03-17T16:05:27.841Z,10.23
2018-03-17T16:07:59.148Z,9.78
2018-03-17T16:10:29.868Z,11.48
2018-03-17T16:13:01.274Z,14.30
2018-03-17T16:15:32.277Z,11.68
2018-03-17T16:18:03.139Z,11.30
2018-03-17T16:20:33.928Z,10.43
2018-03-17T16:23:04.855Z,8.10
2018-03-17T16:25:35.852Z,6.90
2018-03-17T16:28:06.804Z,7.97
2018-03-17T16:30:38.393Z,12.34
2018-03-17T16:33:09.165Z,8.68
2018-03-17T16:35:39.812Z,9.18
2018-03-17T16:38:10.543Z,8.50
2018-03-17T16:40:41.139Z,9.20
2018-03-17T16:43:11.902Z,8.55
2018-03-17T16:45:42.787Z,7.45
2018-03-17T16:48:13.405Z,9.15
2018-03-17T16:50:44.060Z,8.82
2018-03-17T16:53:14.420Z,8.86
2018-03-17T16:55:45.250Z,9.52
2018-03-17T16:58:15.699Z,10.73
2018-03-17T17:00:47.112Z,10.60
2018-03-17T17:03:19.532Z,10.50
2018-03-17T17:05:49.011Z,11.30
2018-03-17T17:08:19.504Z,14.56
2018-03-17T17:10:50.480Z,12.50
2018-03-17T17:13:20.551Z,12.40
2018-03-17T17:15:51.231Z,16.84
2018-03-17T17:18:21.903Z,12.00
2018-03-17T17:20:52.627Z,9.75
2018-03-17T17:23:24.204Z,12.24
2018-03-17T17:25:54.125Z,12.98
2018-03-17T17:28:24.900Z,8.40
2018-03-17T17:30:55.773Z,10.52
2018-03-17T17:33:26.453Z,13.20
2018-03-17T17:35:57.233Z,12.15
2018-03-17T17:38:28.044Z,10.82
2018-03-17T17:40:58.827Z,15.80
2018-03-17T17:43:30.330Z,13.26
2018-03-17T17:46:00.658Z,15.04
2018-03-17T17:48:31.474Z,12.15
2018-03-17T17:51:01.426Z,11.52
2018-03-17T17:53:32.832Z,13.60
2018-03-17T17:56:03.426Z,10.32
2018-03-17T17:58:34.151Z,10.50
2018-03-17T18:01:04.708Z,14.12
2018-03-17T18:03:35.168Z,13.13
2018-03-17T18:06:05.853Z,10.88
2018-03-17T18:08:36.471Z,11.60
2018-03-17T18:11:07.332Z,11.00
2018-03-17T18:13:38.055Z,8.35
2018-03-17T18:16:09.107Z,10.07
2018-03-17T18:18:39.952Z,9.85
2018-03-17T18:21:10.799Z,9.45
2018-03-17T18:23:42.206Z,6.60
2018-03-17T18:26:12.864Z,8.48
2018-03-17T18:28:43.813Z,7.57
2018-03-17T18:31:15.360Z,7.80
2018-03-17T18:33:46.073Z,8.18
2018-03-17T18:36:16.821Z,7.95
2018-03-17T18:38:47.341Z,7.65
2018-03-17T18:41:18.041Z,6.82
2018-03-17T18:43:48.877Z,7.12
2018-03-17T18:46:19.789Z,6.87
2018-03-17T18:48:50.840Z,4.65
2018-03-17T18:51:21.780Z,8.10
2018-03-17T18:53:53.184Z,8.36
2018-03-17T18:56:23.915Z,11.70
2018-03-17T18:58:54.945Z,12.93
2018-03-17T19:01:25.832Z,11.82
2018-03-17T19:03:56.459Z,13.35
2018-03-17T19:06:26.390Z,7.43
2018-03-17T19:08:57.488Z,12.13
2018-03-17T19:11:28.828Z,12.10
2018-03-17T19:13:59.455Z,8.63
2018-03-17T19:16:30.316Z,13.35
2018-03-17T19:19:01.120Z,9.15
2018-03-17T19:21:31.813Z,10.07
2018-03-17T19:24:02.978Z,9.43
2018-03-17T19:26:33.819Z,9.77
2018-03-17T19:29:05.277Z,10.98
2018-03-17T19:31:36.738Z,10.74
2018-03-17T19:34:07.501Z,11.18
2018-03-17T19:36:38.147Z,9.20
2018-03-17T19:39:08.963Z,11.10
2018-03-17T19:41:39.828Z,8.82
2018-03-17T19:44:10.803Z,8.45
2018-03-17T19:46:41.788Z,8.63
2018-03-17T19:49:13.293Z,10.40
2018-03-17T19:51:44.044Z,10.25
2018-03-17T19:54:14.965Z,10.10
2018-03-17T19:56:45.737Z,12.57
2018-03-17T19:59:17.173Z,15.14
2018-03-17T20:01:48.037Z,13.15
2018-03-17T20:04:18.944Z,11.80
2018-03-17T20:06:49.789Z,12.70
2018-03-17T20:09:20.446Z,11.38
2018-03-17T20:11:51.148Z,12.95
2018-03-17T20:14:22.027Z,11.15
2018-03-17T20:16:52.533Z,13.68
2018-03-17T20:19:23.333Z,13.23
2018-03-17T20:21:53.365Z,13.85
2018-03-17T20:24:24.107Z,11.10
2018-03-17T20:26:54.445Z,10.80
2018-03-17T20:29:25.194Z,10.43
2018-03-17T20:31:55.832Z,11.12
2018-03-17T20:34:26.477Z,10.15
2018-03-17T20:36:56.508Z,10.95
2018-03-17T20:39:27.033Z,12.68
2018-03-17T20:41:57.803Z,9.88
2018-03-17T20:44:28.884Z,13.35
2018-03-17T20:46:59.775Z,14.05
2018-03-17T20:49:30.866Z,10.15
2018-03-17T20:52:02.228Z,12.36
2018-03-17T20:54:32.668Z,11.38
2018-03-17T20:57:03.183Z,7.14
2018-03-17T20:59:33.922Z,9.52
2018-03-17T21:02:04.883Z,11.45
2018-03-17T21:04:36.292Z,12.02
2018-03-17T21:07:06.988Z,11.32
2018-03-17T21:09:37.845Z,8.82
2018-03-17T21:12:08.827Z,9.10
2018-03-17T21:14:39.850Z,9.07
2018-03-17T21:17:10.788Z,11.15
2018-03-17T21:19:42.204Z,6.44
2018-03-17T21:22:12.906Z,9.00
2018-03-17T21:24:43.940Z,10.68
2018-03-17T21:27:14.965Z,9.90
2018-03-17T21:29:45.920Z,8.98
2018-03-17T21:32:16.859Z,12.50
2018-03-17T21:34:47.952Z,7.68
2018-03-17T21:37:18.843Z,8.52
2018-03-17T21:39:50.214Z,8.48
2018-03-17T21:42:20.159Z,8.60
2018-03-17T21:44:50.935Z,7.90
2018-03-17T21:47:22.320Z,5.78
2018-03-17T21:49:53.066Z,8.55
2018-03-17T21:52:23.878Z,11.18
2018-03-17T21:54:54.873Z,8.18
2018-03-17T21:57:25.807Z,10.50
2018-03-17T21:59:57.183Z,9.04
2018-03-17T22:02:27.873Z,9.85
2018-03-17T22:04:58.900Z,11.07
2018-03-17T22:07:29.880Z,7.93
2018-03-17T22:10:00.846Z,8.27
2018-03-17T22:12:32.261Z,6.86
2018-03-17T22:15:02.975Z,6.93
2018-03-17T22:17:33.818Z,7.68
2018-03-17T22:20:04.125Z,4.50
2018-03-17T22:22:34.919Z,7.18
2018-03-17T22:25:05.950Z,8.18
2018-03-17T22:27:36.444Z,8.38
2018-03-17T22:30:07.193Z,7.65
2018-03-17T22:32:37.930Z,7.55
2018-03-17T22:35:08.521Z,6.10
2018-03-17T22:37:39.163Z,7.32
2018-03-17T22:40:10.012Z,7.28
2018-03-17T22:42:40.616Z,6.44
2018-03-17T22:45:11.211Z,7.47
2018-03-17T22:47:41.851Z,8.05
2018-03-17T22:50:12.852Z,7.05
2018-03-17T22:52:43.825Z,7.40
2018-03-17T22:55:14.879Z,7.18
2018-03-17T22:57:45.790Z,4.72
2018-03-17T23:00:16.719Z,7.02
2018-03-17T23:02:48.123Z,5.62
2018-03-17T23:05:18.840Z,6.80
2018-03-17T23:07:50.416Z,6.46
2018-03-17T23:10:21.145Z,6.40
2018-03-17T23:12:51.764Z,7.80
2018-03-17T23:15:23.012Z,7.00
2018-03-17T23:17:53.890Z,4.72
2018-03-17T23:20:24.836Z,5.10
2018-03-17T23:22:55.808Z,7.05
2018-03-17T23:25:26.264Z,7.45
2018-03-17T23:27:57.973Z,6.00
2018-03-17T23:30:28.736Z,4.97
2018-03-17T23:33:00.249Z,4.92
2018-03-17T23:35:32.221Z,6.78
2018-03-17T23:38:01.459Z,6.77
2018-03-17T23:40:31.828Z,6.70
2018-03-17T23:43:03.160Z,5.94
2018-03-17T23:45:33.635Z,5.93
2018-03-17T23:48:04.211Z,7.14
2018-03-17T23:50:35.752Z,7.08
2018-03-17T23:53:06.280Z,8.17
2018-03-17T23:55:36.968Z,8.98
2018-03-17T23:58:07.416Z,7.16
